sensor_id;sensor_type;location;lat;lon;timestamp;pressure;altitude;pressure_sealevel;temperature;humidity
71573;BME280;59408;51.032;9.410;2022-08-07T00:02:10;99995.75;;;9.20;82.34
71573;BME280;59408;51.032;9.410;2022-08-07T00:04:56;99996.34;;;9.17;82.13
71573;BME280;59408;51.032;9.410;2022-08-07T00:07:25;99997.75;;;9.14;81.97
71573;BME280;59408;51.032;9.410;2022-08-07T00:09:53;99990.53;;;9.10;82.81
71573;BME280;59408;51.032;9.410;2022-08-07T00:12:39;99996.56;;;9.07;81.42
71573;BME280;59408;51.032;9.410;2022-08-07T00:15:23;99993.16;;;9.01;82.72
71573;BME280;59408;51.032;9.410;2022-08-07T00:18:01;99988.09;;;8.95;83.27
71573;BME280;59408;51.032;9.410;2022-08-07T00:20:28;99988.41;;;8.93;82.74
71573;BME280;59408;51.032;9.410;2022-08-07T00:23:02;99988.53;;;8.88;83.28
71573;BME280;59408;51.032;9.410;2022-08-07T00:25:34;99980.78;;;8.82;83.91
71573;BME280;59408;51.032;9.410;2022-08-07T00:28:07;99978.66;;;8.79;83.36
71573;BME280;59408;51.032;9.410;2022-08-07T00:30:36;99972.41;;;8.78;83.46
71573;BME280;59408;51.032;9.410;2022-08-07T00:33:03;99968.88;;;8.77;83.18
71573;BME280;59408;51.032;9.410;2022-08-07T00:35:33;99977.16;;;8.72;83.86
71573;BME280;59408;51.032;9.410;2022-08-07T00:38:04;99971.00;;;8.67;83.35
71573;BME280;59408;51.032;9.410;2022-08-07T00:40:31;99970.59;;;8.60;84.59
71573;BME280;59408;51.032;9.410;2022-08-07T00:43:07;99973.22;;;8.51;84.57
71573;BME280;59408;51.032;9.410;2022-08-07T00:45:36;99970.28;;;8.48;84.17
71573;BME280;59408;51.032;9.410;2022-08-07T00:48:04;99967.91;;;8.46;84.83
71573;BME280;59408;51.032;9.410;2022-08-07T00:50:36;99969.31;;;8.44;84.45
71573;BME280;59408;51.032;9.410;2022-08-07T00:53:18;99970.00;;;8.35;84.87
71573;BME280;59408;51.032;9.410;2022-08-07T00:55:46;99964.06;;;8.33;85.84
71573;BME280;59408;51.032;9.410;2022-08-07T00:58:28;99965.16;;;8.32;86.34
71573;BME280;59408;51.032;9.410;2022-08-07T01:00:55;99961.44;;;8.28;86.15
71573;BME280;59408;51.032;9.410;2022-08-07T01:03:22;99954.69;;;8.26;85.49
71573;BME280;59408;51.032;9.410;2022-08-07T01:06:09;99952.38;;;8.19;86.14
71573;BME280;59408;51.032;9.410;2022-08-07T01:08:40;99956.19;;;8.18;85.91
71573;BME280;59408;51.032;9.410;2022-08-07T01:11:17;99950.56;;;8.15;86.80
71573;BME280;59408;51.032;9.410;2022-08-07T01:14:03;99951.34;;;8.15;86.88
71573;BME280;59408;51.032;9.410;2022-08-07T01:16:30;99948.63;;;8.15;85.98
71573;BME280;59408;51.032;9.410;2022-08-07T01:18:57;99941.59;;;8.14;86.15
71573;BME280;59408;51.032;9.410;2022-08-07T01:21:26;99943.50;;;8.14;85.05
71573;BME280;59408;51.032;9.410;2022-08-07T01:23:55;99946.31;;;8.09;86.69
71573;BME280;59408;51.032;9.410;2022-08-07T01:26:23;99946.41;;;8.04;86.77
71573;BME280;59408;51.032;9.410;2022-08-07T01:28:52;99949.41;;;8.02;86.37
71573;BME280;59408;51.032;9.410;2022-08-07T01:31:20;99943.28;;;7.96;86.45
71573;BME280;59408;51.032;9.410;2022-08-07T01:33:48;99947.09;;;7.95;86.16
71573;BME280;59408;51.032;9.410;2022-08-07T01:36:23;99943.06;;;7.93;87.44
71573;BME280;59408;51.032;9.410;2022-08-07T01:39:02;99948.50;;;7.93;87.15
71573;BME280;59408;51.032;9.410;2022-08-07T01:41:36;99938.25;;;7.90;86.67
71573;BME280;59408;51.032;9.410;2022-08-07T01:44:04;99939.94;;;7.86;86.08
71573;BME280;59408;51.032;9.410;2022-08-07T01:46:31;99944.03;;;7.83;87.66
71573;BME280;59408;51.032;9.410;2022-08-07T01:48:57;99938.41;;;7.80;86.68
71573;BME280;59408;51.032;9.410;2022-08-07T01:51:25;99942.22;;;7.79;86.47
71573;BME280;59408;51.032;9.410;2022-08-07T01:54:14;99941.31;;;7.70;85.85
71573;BME280;59408;51.032;9.410;2022-08-07T01:57:05;99946.22;;;7.68;87.18
71573;BME280;59408;51.032;9.410;2022-08-07T01:59:41;99944.59;;;7.67;86.86
71573;BME280;59408;51.032;9.410;2022-08-07T02:02:15;99938.69;;;7.65;86.67
71573;BME280;59408;51.032;9.410;2022-08-07T02:05:05;99947.72;;;7.60;87.49
71573;BME280;59408;51.032;9.410;2022-08-07T02:07:46;99947.72;;;7.60;87.09
71573;BME280;59408;51.032;9.410;2022-08-07T02:10:22;99937.75;;;7.55;85.96
71573;BME280;59408;51.032;9.410;2022-08-07T02:12:50;99946.47;;;7.52;87.14
71573;BME280;59408;51.032;9.410;2022-08-07T02:15:22;99946.06;;;7.45;87.75
71573;BME280;59408;51.032;9.410;2022-08-07T02:17:52;99934.88;;;7.47;87.07
71573;BME280;59408;51.032;9.410;2022-08-07T02:20:22;99935.50;;;7.44;87.20
71573;BME280;59408;51.032;9.410;2022-08-07T02:22:52;99939.59;;;7.41;87.91
71573;BME280;59408;51.032;9.410;2022-08-07T02:25:24;99938.59;;;7.37;87.82
71573;BME280;59408;51.032;9.410;2022-08-07T02:28:13;99946.22;;;7.35;87.78
71573;BME280;59408;51.032;9.410;2022-08-07T02:30:51;99940.25;;;7.33;87.40
71573;BME280;59408;51.032;9.410;2022-08-07T02:33:19;99942.16;;;7.33;86.85
71573;BME280;59408;51.032;9.410;2022-08-07T02:35:47;99948.47;;;7.28;87.37
71573;BME280;59408;51.032;9.410;2022-08-07T02:38:36;99943.91;;;7.23;87.80
71573;BME280;59408;51.032;9.410;2022-08-07T02:41:05;99940.38;;;7.23;88.46
71573;BME280;59408;51.032;9.410;2022-08-07T02:43:37;99934.16;;;7.22;88.72
71573;BME280;59408;51.032;9.410;2022-08-07T02:46:06;99928.00;;;7.17;88.12
71573;BME280;59408;51.032;9.410;2022-08-07T02:48:34;99936.66;;;7.19;87.63
71573;BME280;59408;51.032;9.410;2022-08-07T02:51:06;99935.63;;;7.15;88.19
71573;BME280;59408;51.032;9.410;2022-08-07T02:53:55;99931.38;;;7.09;89.64
71573;BME280;59408;51.032;9.410;2022-08-07T02:56:28;99935.19;;;7.08;87.76
71573;BME280;59408;51.032;9.410;2022-08-07T02:58:59;99940.38;;;7.04;88.07
71573;BME280;59408;51.032;9.410;2022-08-07T03:01:27;99941.19;;;7.05;87.90
71573;BME280;59408;51.032;9.410;2022-08-07T03:04:03;99933.06;;;7.05;88.16
71573;BME280;59408;51.032;9.410;2022-08-07T03:06:38;99942.91;;;7.01;88.73
71573;BME280;59408;51.032;9.410;2022-08-07T03:09:06;99940.75;;;6.98;90.28
71573;BME280;59408;51.032;9.410;2022-08-07T03:11:39;99933.47;;;6.93;90.06
71573;BME280;59408;51.032;9.410;2022-08-07T03:14:23;99939.22;;;6.92;90.34
71573;BME280;59408;51.032;9.410;2022-08-07T03:16:53;99927.84;;;6.89;89.69
71573;BME280;59408;51.032;9.410;2022-08-07T03:19:20;99934.38;;;6.88;89.66
71573;BME280;59408;51.032;9.410;2022-08-07T03:21:48;99931.16;;;6.86;89.69
71573;BME280;59408;51.032;9.410;2022-08-07T03:24:17;99934.44;;;6.83;89.13
71573;BME280;59408;51.032;9.410;2022-08-07T03:26:58;99926.09;;;6.80;89.61
71573;BME280;59408;51.032;9.410;2022-08-07T03:29:27;99924.75;;;6.77;89.82
71573;BME280;59408;51.032;9.410;2022-08-07T03:31:55;99928.38;;;6.73;89.48
71573;BME280;59408;51.032;9.410;2022-08-07T03:34:25;99929.47;;;6.72;90.31
71573;BME280;59408;51.032;9.410;2022-08-07T03:36:53;99923.50;;;6.70;89.70
71573;BME280;59408;51.032;9.410;2022-08-07T03:39:24;99927.31;;;6.69;90.17
71573;BME280;59408;51.032;9.410;2022-08-07T03:42:13;99921.38;;;6.67;89.82
71573;BME280;59408;51.032;9.410;2022-08-07T03:44:41;99929.78;;;6.65;89.86
71573;BME280;59408;51.032;9.410;2022-08-07T03:47:18;99924.69;;;6.64;90.30
71573;BME280;59408;51.032;9.410;2022-08-07T03:49:48;99932.28;;;6.62;89.91
71573;BME280;59408;51.032;9.410;2022-08-07T03:52:20;99924.44;;;6.60;91.12
71573;BME280;59408;51.032;9.410;2022-08-07T03:54:53;99924.22;;;6.57;90.79
71573;BME280;59408;51.032;9.410;2022-08-07T03:57:34;99920.25;;;6.49;91.84
71573;BME280;59408;51.032;9.410;2022-08-07T04:00:21;99920.47;;;6.53;91.73
71573;BME280;59408;51.032;9.410;2022-08-07T04:02:59;99922.94;;;6.49;91.26
71573;BME280;59408;51.032;9.410;2022-08-07T04:05:30;99930.28;;;6.48;91.11
71573;BME280;59408;51.032;9.410;2022-08-07T04:08:09;99922.94;;;6.49;90.43
71573;BME280;59408;51.032;9.410;2022-08-07T04:10:36;99925.38;;;6.50;91.41
71573;BME280;59408;51.032;9.410;2022-08-07T04:13:06;99927.81;;;6.52;90.50
71573;BME280;59408;51.032;9.410;2022-08-07T04:15:40;99923.19;;;6.53;90.99
71573;BME280;59408;51.032;9.410;2022-08-07T04:18:10;99912.63;;;6.51;91.17
71573;BME280;59408;51.032;9.410;2022-08-07T04:20:57;99921.00;;;6.55;91.06
71573;BME280;59408;51.032;9.410;2022-08-07T04:23:26;99918.28;;;6.55;91.63
71573;BME280;59408;51.032;9.410;2022-08-07T04:26:13;99923.72;;;6.55;90.60
71573;BME280;59408;51.032;9.410;2022-08-07T04:28:43;99923.41;;;6.56;91.21
71573;BME280;59408;51.032;9.410;2022-08-07T04:31:10;99931.53;;;6.56;91.10
71573;BME280;59408;51.032;9.410;2022-08-07T04:33:46;99917.19;;;6.56;90.87
71573;BME280;59408;51.032;9.410;2022-08-07T04:36:24;99928.53;;;6.58;91.19
71573;BME280;59408;51.032;9.410;2022-08-07T04:38:52;99926.91;;;6.57;90.78
71573;BME280;59408;51.032;9.410;2022-08-07T04:41:18;99932.34;;;6.57;90.40
71573;BME280;59408;51.032;9.410;2022-08-07T04:43:46;99935.06;;;6.57;91.28
71573;BME280;59408;51.032;9.410;2022-08-07T04:46:37;99937.19;;;6.60;90.27
71573;BME280;59408;51.032;9.410;2022-08-07T04:49:29;99937.16;;;6.65;89.85
71573;BME280;59408;51.032;9.410;2022-08-07T04:52:12;99939.25;;;6.68;90.62
71573;BME280;59408;51.032;9.410;2022-08-07T04:54:48;99938.69;;;6.71;91.28
71573;BME280;59408;51.032;9.410;2022-08-07T04:57:23;99940.50;;;6.75;92.43
71573;BME280;59408;51.032;9.410;2022-08-07T05:00:16;99939.34;;;6.81;91.89
71573;BME280;59408;51.032;9.410;2022-08-07T05:03:00;99949.56;;;6.89;91.14
71573;BME280;59408;51.032;9.410;2022-08-07T05:05:58;99952.72;;;6.97;91.49
71573;BME280;59408;51.032;9.410;2022-08-07T05:08:30;99951.25;;;7.04;90.93
71573;BME280;59408;51.032;9.410;2022-08-07T05:11:23;99943.84;;;7.10;90.62
71573;BME280;59408;51.032;9.410;2022-08-07T05:14:18;99942.44;;;7.12;91.19
71573;BME280;59408;51.032;9.410;2022-08-07T05:17:08;99947.19;;;7.20;90.47
71573;BME280;59408;51.032;9.410;2022-08-07T05:19:41;99948.16;;;7.30;89.83
71573;BME280;59408;51.032;9.410;2022-08-07T05:22:11;99952.44;;;7.36;89.84
71573;BME280;59408;51.032;9.410;2022-08-07T05:24:53;99953.97;;;7.42;88.86
71573;BME280;59408;51.032;9.410;2022-08-07T05:27:21;99956.31;;;7.48;89.23
71573;BME280;59408;51.032;9.410;2022-08-07T05:30:10;99959.66;;;7.59;89.69
71573;BME280;59408;51.032;9.410;2022-08-07T05:32:39;99968.22;;;7.66;88.92
71573;BME280;59408;51.032;9.410;2022-08-07T05:35:07;99964.06;;;7.74;88.64
71573;BME280;59408;51.032;9.410;2022-08-07T05:37:36;99969.50;;;7.87;90.00
71573;BME280;59408;51.032;9.410;2022-08-07T05:40:09;99962.50;;;8.00;90.21
71573;BME280;59408;51.032;9.410;2022-08-07T05:42:45;99961.72;;;8.13;88.96
71573;BME280;59408;51.032;9.410;2022-08-07T05:45:22;99962.84;;;8.26;88.42
71573;BME280;59408;51.032;9.410;2022-08-07T05:48:12;99960.34;;;8.43;87.94
71573;BME280;59408;51.032;9.410;2022-08-07T05:50:40;99962.22;;;8.56;88.04
71573;BME280;59408;51.032;9.410;2022-08-07T05:53:09;99969.91;;;8.68;86.78
71573;BME280;59408;51.032;9.410;2022-08-07T05:55:56;99973.09;;;8.84;85.40
71573;BME280;59408;51.032;9.410;2022-08-07T05:58:32;99983.38;;;9.00;84.29
71573;BME280;59408;51.032;9.410;2022-08-07T06:01:03;99982.75;;;9.17;83.21
71573;BME280;59408;51.032;9.410;2022-08-07T06:03:35;99984.03;;;9.33;82.28
71573;BME280;59408;51.032;9.410;2022-08-07T06:06:23;99981.44;;;9.50;81.27
71573;BME280;59408;51.032;9.410;2022-08-07T06:08:55;99973.22;;;9.64;81.20
71573;BME280;59408;51.032;9.410;2022-08-07T06:11:24;99974.63;;;9.84;81.62
71573;BME280;59408;51.032;9.410;2022-08-07T06:13:51;99984.22;;;10.04;81.87
71573;BME280;59408;51.032;9.410;2022-08-07T06:16:38;99977.44;;;10.23;81.25
71573;BME280;59408;51.032;9.410;2022-08-07T06:19:07;99971.75;;;10.42;80.31
71573;BME280;59408;51.032;9.410;2022-08-07T06:21:55;99982.41;;;10.61;79.38
71573;BME280;59408;51.032;9.410;2022-08-07T06:24:41;99973.38;;;10.83;78.47
71573;BME280;59408;51.032;9.410;2022-08-07T06:27:25;99976.28;;;11.04;77.19
71573;BME280;59408;51.032;9.410;2022-08-07T06:30:12;99976.00;;;11.22;76.06
71573;BME280;59408;51.032;9.410;2022-08-07T06:32:59;99980.19;;;11.46;75.43
71573;BME280;59408;51.032;9.410;2022-08-07T06:35:28;99972.78;;;11.63;76.16
71573;BME280;59408;51.032;9.410;2022-08-07T06:38:13;99965.69;;;11.88;77.35
71573;BME280;59408;51.032;9.410;2022-08-07T06:40:48;99963.06;;;12.09;75.81
71573;BME280;59408;51.032;9.410;2022-08-07T06:43:20;99962.75;;;12.19;75.41
71573;BME280;59408;51.032;9.410;2022-08-07T06:45:48;99961.88;;;12.36;75.82
71573;BME280;59408;51.032;9.410;2022-08-07T06:48:15;99963.56;;;12.49;74.71
71573;BME280;59408;51.032;9.410;2022-08-07T06:50:53;99967.84;;;12.67;74.98
71573;BME280;59408;51.032;9.410;2022-08-07T06:53:21;99969.69;;;12.84;75.25
71573;BME280;59408;51.032;9.410;2022-08-07T06:56:10;99963.66;;;12.99;74.48
71573;BME280;59408;51.032;9.410;2022-08-07T06:58:41;99962.94;;;13.11;73.26
71573;BME280;59408;51.032;9.410;2022-08-07T07:01:30;99962.13;;;13.31;74.04
71573;BME280;59408;51.032;9.410;2022-08-07T07:04:16;99953.53;;;13.41;72.45
71573;BME280;59408;51.032;9.410;2022-08-07T07:07:00;99956.19;;;13.50;72.29
71573;BME280;59408;51.032;9.410;2022-08-07T07:09:29;99961.31;;;13.72;72.69
71573;BME280;59408;51.032;9.410;2022-08-07T07:12:03;99960.81;;;13.91;73.22
71573;BME280;59408;51.032;9.410;2022-08-07T07:14:51;99956.88;;;14.13;71.11
71573;BME280;59408;51.032;9.410;2022-08-07T07:17:32;99954.16;;;14.25;70.22
71573;BME280;59408;51.032;9.410;2022-08-07T07:20:09;99945.69;;;14.42;69.72
71573;BME280;59408;51.032;9.410;2022-08-07T07:22:39;99955.59;;;14.55;69.40
71573;BME280;59408;51.032;9.410;2022-08-07T07:25:27;99939.91;;;14.80;69.56
71573;BME280;59408;51.032;9.410;2022-08-07T07:28:19;99944.13;;;15.02;67.85
71573;BME280;59408;51.032;9.410;2022-08-07T07:31:14;99944.84;;;15.27;67.93
71573;BME280;59408;51.032;9.410;2022-08-07T07:33:49;99953.13;;;15.55;68.37
71573;BME280;59408;51.032;9.410;2022-08-07T07:36:23;99952.41;;;15.70;66.46
71573;BME280;59408;51.032;9.410;2022-08-07T07:39:01;99943.03;;;15.87;63.32
71573;BME280;59408;51.032;9.410;2022-08-07T07:41:29;99942.91;;;16.11;65.40
71573;BME280;59408;51.032;9.410;2022-08-07T07:44:18;99938.84;;;16.36;64.43
71573;BME280;59408;51.032;9.410;2022-08-07T07:46:52;99933.25;;;16.64;63.92
71573;BME280;59408;51.032;9.410;2022-08-07T07:49:40;99930.31;;;17.08;54.84
71573;BME280;59408;51.032;9.410;2022-08-07T07:52:28;99932.22;;;17.42;58.86
71573;BME280;59408;51.032;9.410;2022-08-07T07:54:58;99936.47;;;17.75;57.51
71573;BME280;59408;51.032;9.410;2022-08-07T07:57:29;99935.78;;;18.00;54.54
71573;BME280;59408;51.032;9.410;2022-08-07T08:00:17;99933.13;;;18.30;53.94
71573;BME280;59408;51.032;9.410;2022-08-07T08:02:58;99927.28;;;18.55;52.58
71573;BME280;59408;51.032;9.410;2022-08-07T08:05:35;99925.75;;;18.84;49.68
71573;BME280;59408;51.032;9.410;2022-08-07T08:08:23;99920.41;;;18.98;48.43
71573;BME280;59408;51.032;9.410;2022-08-07T08:11:05;99916.38;;;19.22;50.14
71573;BME280;59408;51.032;9.410;2022-08-07T08:13:35;99923.59;;;19.60;49.74
71573;BME280;59408;51.032;9.410;2022-08-07T08:16:23;99917.91;;;19.79;47.57
71573;BME280;59408;51.032;9.410;2022-08-07T08:18:57;99914.19;;;20.01;47.06
71573;BME280;59408;51.032;9.410;2022-08-07T08:21:36;99925.88;;;20.21;46.64
71573;BME280;59408;51.032;9.410;2022-08-07T08:24:26;99915.34;;;20.41;45.18
71573;BME280;59408;51.032;9.410;2022-08-07T08:27:14;99910.47;;;20.75;46.23
71573;BME280;59408;51.032;9.410;2022-08-07T08:29:44;99918.22;;;21.02;44.18
71573;BME280;59408;51.032;9.410;2022-08-07T08:32:24;99915.53;;;21.24;45.50
71573;BME280;59408;51.032;9.410;2022-08-07T08:35:07;99908.53;;;21.48;44.11
71573;BME280;59408;51.032;9.410;2022-08-07T08:37:36;99906.25;;;21.82;42.66
71573;BME280;59408;51.032;9.410;2022-08-07T08:40:26;99911.00;;;21.77;41.70
71573;BME280;59408;51.032;9.410;2022-08-07T08:43:02;99912.66;;;22.03;41.63
71573;BME280;59408;51.032;9.410;2022-08-07T08:45:37;99915.06;;;22.19;41.57
71573;BME280;59408;51.032;9.410;2022-08-07T08:48:31;99901.56;;;22.46;41.72
71573;BME280;59408;51.032;9.410;2022-08-07T08:51:09;99905.16;;;22.54;42.02
71573;BME280;59408;51.032;9.410;2022-08-07T08:53:59;99899.97;;;22.80;41.20
71573;BME280;59408;51.032;9.410;2022-08-07T08:56:31;99899.50;;;23.10;40.12
71573;BME280;59408;51.032;9.410;2022-08-07T08:59:04;99894.69;;;23.29;39.36
71573;BME280;59408;51.032;9.410;2022-08-07T09:01:43;99908.50;;;23.50;38.22
71573;BME280;59408;51.032;9.410;2022-08-07T09:04:21;99908.09;;;23.51;38.11
71573;BME280;59408;51.032;9.410;2022-08-07T09:06:59;99896.56;;;23.56;38.45
71573;BME280;59408;51.032;9.410;2022-08-07T09:09:50;99891.69;;;23.71;36.81
71573;BME280;59408;51.032;9.410;2022-08-07T09:12:35;99899.19;;;23.92;36.88
71573;BME280;59408;51.032;9.410;2022-08-07T09:15:29;99905.03;;;24.05;37.61
71573;BME280;59408;51.032;9.410;2022-08-07T09:18:25;99903.22;;;24.35;35.70
71573;BME280;59408;51.032;9.410;2022-08-07T09:21:08;99890.41;;;24.45;36.40
71573;BME280;59408;51.032;9.410;2022-08-07T09:24:00;99888.50;;;24.35;35.78
71573;BME280;59408;51.032;9.410;2022-08-07T09:26:53;99883.88;;;24.59;33.83
71573;BME280;59408;51.032;9.410;2022-08-07T09:29:27;99887.78;;;24.72;35.08
71573;BME280;59408;51.032;9.410;2022-08-07T09:32:34;99883.34;;;24.78;32.88
71573;BME280;59408;51.032;9.410;2022-08-07T09:35:12;99883.22;;;24.89;34.23
71573;BME280;59408;51.032;9.410;2022-08-07T09:38:08;99879.84;;;25.04;33.90
71573;BME280;59408;51.032;9.410;2022-08-07T09:40:58;99870.44;;;25.25;34.38
71573;BME280;59408;51.032;9.410;2022-08-07T09:43:40;99868.66;;;25.42;34.96
71573;BME280;59408;51.032;9.410;2022-08-07T09:46:41;99864.00;;;25.62;34.20
71573;BME280;59408;51.032;9.410;2022-08-07T09:49:47;99868.78;;;25.89;32.54
71573;BME280;59408;51.032;9.410;2022-08-07T09:52:36;99863.88;;;26.23;32.43
71573;BME280;59408;51.032;9.410;2022-08-07T09:55:12;99861.59;;;26.18;32.61
71573;BME280;59408;51.032;9.410;2022-08-07T09:58:18;99858.50;;;26.59;30.05
71573;BME280;59408;51.032;9.410;2022-08-07T10:01:05;99856.91;;;26.35;32.09
71573;BME280;59408;51.032;9.410;2022-08-07T10:03:48;99853.56;;;26.43;32.61
71573;BME280;59408;51.032;9.410;2022-08-07T10:06:55;99838.19;;;26.55;31.78
71573;BME280;59408;51.032;9.410;2022-08-07T10:09:43;99835.63;;;26.64;30.73
71573;BME280;59408;51.032;9.410;2022-08-07T10:15:40;99825.81;;;26.76;30.05
71573;BME280;59408;51.032;9.410;2022-08-07T10:18:23;99830.13;;;27.00;32.73
71573;BME280;59408;51.032;9.410;2022-08-07T10:21:09;99826.53;;;27.39;33.31
71573;BME280;59408;51.032;9.410;2022-08-07T10:24:18;99813.63;;;27.78;31.06
71573;BME280;59408;51.032;9.410;2022-08-07T10:27:01;99806.72;;;27.98;30.37
71573;BME280;59408;51.032;9.410;2022-08-07T10:29:56;99814.94;;;27.73;29.28
71573;BME280;59408;51.032;9.410;2022-08-07T10:32:40;99808.91;;;28.07;30.69
71573;BME280;59408;51.032;9.410;2022-08-07T10:35:26;99808.56;;;28.37;29.51
71573;BME280;59408;51.032;9.410;2022-08-07T10:38:23;99800.56;;;28.52;30.47
71573;BME280;59408;51.032;9.410;2022-08-07T10:41:19;99802.06;;;28.86;27.78
71573;BME280;59408;51.032;9.410;2022-08-07T10:44:12;99795.69;;;28.98;28.75
71573;BME280;59408;51.032;9.410;2022-08-07T10:46:50;99801.44;;;28.94;28.50
71573;BME280;59408;51.032;9.410;2022-08-07T10:49:22;99795.97;;;28.87;27.76
71573;BME280;59408;51.032;9.410;2022-08-07T10:52:17;99785.94;;;29.15;26.75
71573;BME280;59408;51.032;9.410;2022-08-07T10:54:51;99791.34;;;29.09;28.09
71573;BME280;59408;51.032;9.410;2022-08-07T10:57:49;99787.44;;;29.20;27.11
71573;BME280;59408;51.032;9.410;2022-08-07T11:00:26;99789.97;;;28.72;28.34
71573;BME280;59408;51.032;9.410;2022-08-07T11:03:13;99781.97;;;28.71;27.92
71573;BME280;59408;51.032;9.410;2022-08-07T11:05:47;99784.72;;;28.74;28.74
71573;BME280;59408;51.032;9.410;2022-08-07T11:08:28;99775.97;;;28.85;27.95
71573;BME280;59408;51.032;9.410;2022-08-07T11:11:07;99781.19;;;28.99;27.81
71573;BME280;59408;51.032;9.410;2022-08-07T11:13:38;99774.25;;;29.04;26.25
71573;BME280;59408;51.032;9.410;2022-08-07T11:16:32;99773.19;;;29.77;26.87
71573;BME280;59408;51.032;9.410;2022-08-07T11:19:04;99778.78;;;30.03;27.25
71573;BME280;59408;51.032;9.410;2022-08-07T11:21:38;99772.38;;;29.90;25.67
71573;BME280;59408;51.032;9.410;2022-08-07T11:24:14;99776.53;;;30.10;27.84
71573;BME280;59408;51.032;9.410;2022-08-07T11:26:48;99774.25;;;30.18;26.05
71573;BME280;59408;51.032;9.410;2022-08-07T11:29:26;99766.56;;;30.66;26.08
71573;BME280;59408;51.032;9.410;2022-08-07T11:32:14;99761.44;;;30.04;25.55
71573;BME280;59408;51.032;9.410;2022-08-07T11:34:55;99754.75;;;29.64;27.03
71573;BME280;59408;51.032;9.410;2022-08-07T11:37:33;99747.00;;;29.68;25.96
71573;BME280;59408;51.032;9.410;2022-08-07T11:40:32;99748.28;;;30.14;25.05
71573;BME280;59408;51.032;9.410;2022-08-07T11:43:17;99738.41;;;30.53;25.95
71573;BME280;59408;51.032;9.410;2022-08-07T11:46:13;99751.69;;;30.65;25.43
71573;BME280;59408;51.032;9.410;2022-08-07T11:48:59;99746.56;;;30.73;24.47
71573;BME280;59408;51.032;9.410;2022-08-07T11:51:58;99736.88;;;30.74;22.87
71573;BME280;59408;51.032;9.410;2022-08-07T11:54:37;99739.44;;;30.81;24.15
71573;BME280;59408;51.032;9.410;2022-08-07T11:57:21;99737.97;;;30.98;24.35
71573;BME280;59408;51.032;9.410;2022-08-07T12:00:10;99737.88;;;31.42;25.14
71573;BME280;59408;51.032;9.410;2022-08-07T12:03:15;99742.59;;;31.76;25.07
71573;BME280;59408;51.032;9.410;2022-08-07T12:06:30;99739.66;;;31.48;22.88
71573;BME280;59408;51.032;9.410;2022-08-07T12:09:08;99736.44;;;31.68;25.16
71573;BME280;59408;51.032;9.410;2022-08-07T12:11:54;99724.91;;;31.93;22.97
71573;BME280;59408;51.032;9.410;2022-08-07T12:14:45;99728.81;;;31.78;24.74
71573;BME280;59408;51.032;9.410;2022-08-07T12:17:31;99721.63;;;31.95;24.60
71573;BME280;59408;51.032;9.410;2022-08-07T12:20:07;99721.63;;;32.04;23.57
71573;BME280;59408;51.032;9.410;2022-08-07T12:26:13;99715.34;;;32.09;22.06
71573;BME280;59408;51.032;9.410;2022-08-07T12:29:02;99713.16;;;32.13;24.75
71573;BME280;59408;51.032;9.410;2022-08-07T12:31:36;99717.25;;;32.39;23.06
71573;BME280;59408;51.032;9.410;2022-08-07T12:34:27;99706.28;;;32.32;22.71
71573;BME280;59408;51.032;9.410;2022-08-07T12:36:56;99706.56;;;32.62;24.46
71573;BME280;59408;51.032;9.410;2022-08-07T12:39:25;99716.94;;;32.47;25.34
71573;BME280;59408;51.032;9.410;2022-08-07T12:42:10;99700.41;;;32.82;21.16
71573;BME280;59408;51.032;9.410;2022-08-07T12:44:42;99694.78;;;31.81;21.55
71573;BME280;59408;51.032;9.410;2022-08-07T12:47:19;99690.78;;;31.60;22.88
71573;BME280;59408;51.032;9.410;2022-08-07T12:49:58;99695.13;;;32.38;25.12
71573;BME280;59408;51.032;9.410;2022-08-07T12:52:40;99693.84;;;32.85;24.25
71573;BME280;59408;51.032;9.410;2022-08-07T12:55:21;99689.56;;;33.40;24.86
71573;BME280;59408;51.032;9.410;2022-08-07T12:58:09;99680.75;;;33.38;21.86
71573;BME280;59408;51.032;9.410;2022-08-07T13:00:48;99681.13;;;33.31;24.20
71573;BME280;59408;51.032;9.410;2022-08-07T13:03:34;99678.56;;;33.33;23.67
71573;BME280;59408;51.032;9.410;2022-08-07T13:06:43;99683.34;;;33.18;22.88
71573;BME280;59408;51.032;9.410;2022-08-07T13:09:41;99684.91;;;33.52;22.67
71573;BME280;59408;51.032;9.410;2022-08-07T13:12:40;99676.56;;;33.25;22.69
71573;BME280;59408;51.032;9.410;2022-08-07T13:15:21;99674.22;;;32.63;22.35
71573;BME280;59408;51.032;9.410;2022-08-07T13:18:05;99673.59;;;32.68;22.49
71573;BME280;59408;51.032;9.410;2022-08-07T13:20:56;99679.44;;;32.28;22.28
71573;BME280;59408;51.032;9.410;2022-08-07T13:23:34;99668.56;;;32.63;21.66
71573;BME280;59408;51.032;9.410;2022-08-07T13:26:29;99678.53;;;33.00;23.47
71573;BME280;59408;51.032;9.410;2022-08-07T13:29:08;99668.56;;;33.56;24.53
71573;BME280;59408;51.032;9.410;2022-08-07T13:31:42;99664.56;;;32.97;21.11
71573;BME280;59408;51.032;9.410;2022-08-07T13:34:37;99655.09;;;33.42;24.40
71573;BME280;59408;51.032;9.410;2022-08-07T13:37:20;99655.34;;;33.53;20.64
71573;BME280;59408;51.032;9.410;2022-08-07T13:40:02;99657.25;;;33.23;22.50
71573;BME280;59408;51.032;9.410;2022-08-07T13:42:56;99657.66;;;33.87;22.74
71573;BME280;59408;51.032;9.410;2022-08-07T13:45:24;99655.50;;;34.21;20.81
71573;BME280;59408;51.032;9.410;2022-08-07T13:48:13;99649.06;;;34.20;22.31
71573;BME280;59408;51.032;9.410;2022-08-07T13:50:54;99650.78;;;34.42;21.29
71573;BME280;59408;51.032;9.410;2022-08-07T13:53:29;99650.69;;;34.66;22.51
71573;BME280;59408;51.032;9.410;2022-08-07T13:56:21;99640.13;;;34.95;21.12
71573;BME280;59408;51.032;9.410;2022-08-07T13:59:11;99639.44;;;34.56;20.59
71573;BME280;59408;51.032;9.410;2022-08-07T14:01:44;99637.91;;;34.02;20.59
71573;BME280;59408;51.032;9.410;2022-08-07T14:04:31;99633.09;;;33.13;22.41
71573;BME280;59408;51.032;9.410;2022-08-07T14:07:04;99633.56;;;33.68;21.25
71573;BME280;59408;51.032;9.410;2022-08-07T14:09:36;99635.69;;;33.59;21.17
71573;BME280;59408;51.032;9.410;2022-08-07T14:12:30;99629.53;;;33.03;23.31
71573;BME280;59408;51.032;9.410;2022-08-07T14:15:17;99631.03;;;32.80;23.81
71573;BME280;59408;51.032;9.410;2022-08-07T14:17:51;99636.13;;;33.33;23.00